Time;durP1;ratioP1;P1;durP2;ratioP2;P2;SDS_P1;SDS_P2;PMS_P1;PMS_P2;Temp;Humidity;BMP_temperature;BMP_pressure;BME280_temperature;BME280_humidity;BME280_pressure;Samples;Min_cycle;Max_cycle;Signal;HPM_P1;HPM_P2
2023/02/13 00:00:29;;;;;;;65.90;39.20;;;;;;;;;;5056361;28;20068;-64
2023/02/13 00:02:55;;;;;;;67.30;37.25;;;;;;;;;;5038874;28;20025;-64
2023/02/13 00:05:20;;;;;;;67.10;38.25;;;;;;;;;;5056542;28;20383;-65
2023/02/13 00:07:45;;;;;;;64.57;35.85;;;;;;;;;;5038694;28;20028;-65
2023/02/13 00:10:12;;;;;;;66.90;37.75;;;;;;;;;;5038625;28;20102;-65
2023/02/13 00:12:37;;;;;;;69.53;39.63;;;;;;;;;;5038450;28;20033;-65
2023/02/13 00:15:05;;;;;;;74.90;40.58;;;;;;;;;;5056577;28;20028;-65
2023/02/13 00:17:31;;;;;;;68.60;39.20;;;;;;;;;;5056473;28;20036;-65
2023/02/13 00:19:56;;;;;;;68.85;38.05;;;;;;;;;;5056074;28;20033;-69
2023/02/13 00:22:21;;;;;;;73.32;41.22;;;;;;;;;;5056059;28;20103;-69
2023/02/13 00:24:47;;;;;;;73.18;42.97;;;;;;;;;;5056163;28;20083;-69
2023/02/13 00:27:12;;;;;;;73.13;43.10;;;;;;;;;;5056021;28;20447;-68
2023/02/13 00:29:37;;;;;;;73.43;42.25;;;;;;;;;;5038185;28;20445;-68
2023/02/13 00:32:03;;;;;;;67.03;38.22;;;;;;;;;;5038316;28;20025;-68
2023/02/13 00:34:28;;;;;;;62.88;37.13;;;;;;;;;;5038260;28;20364;-68
2023/02/13 00:36:53;;;;;;;66.28;37.83;;;;;;;;;;5055801;28;20021;-68
2023/02/13 00:39:19;;;;;;;62.75;35.15;;;;;;;;;;5038139;28;20032;-68
2023/02/13 00:41:47;;;;;;;62.83;35.85;;;;;;;;;;5055830;28;20592;-68
2023/02/13 00:44:13;;;;;;;67.85;37.17;;;;;;;;;;5037918;28;20032;-64
2023/02/13 00:46:38;;;;;;;56.50;34.25;;;;;;;;;;5055618;28;20032;-64
2023/02/13 00:49:04;;;;;;;56.80;33.78;;;;;;;;;;5055892;28;20059;-64
2023/02/13 00:51:32;;;;;;;53.92;33.00;;;;;;;;;;5055520;28;20043;-64
2023/02/13 00:53:58;;;;;;;54.67;32.50;;;;;;;;;;5055467;28;20355;-65
2023/02/13 00:56:23;;;;;;;57.90;33.25;;;;;;;;;;5037756;28;20114;-65
2023/02/13 00:58:49;;;;;;;59.97;33.45;;;;;;;;;;5027631;28;20025;-65
2023/02/13 01:01:14;;;;;;;58.78;33.08;;;;;;;;;;5035780;28;20068;-64
2023/02/13 01:03:41;;;;;;;58.70;33.65;;;;;;;;;;5017893;28;20467;-64
2023/02/13 01:06:07;;;;;;;55.53;32.90;;;;;;;;;;5035446;28;20030;-64
2023/02/13 01:08:32;;;;;;;54.30;32.00;;;;;;;;;;5017529;28;20128;-64
2023/02/13 01:10:58;;;;;;;56.85;31.48;;;;;;;;;;5035672;28;20101;-64
2023/02/13 01:13:25;;;;;;;53.55;31.35;;;;;;;;;;5035213;28;20033;-64
2023/02/13 01:15:52;;;;;;;53.33;30.98;;;;;;;;;;5035356;28;20017;-64
2023/02/13 01:18:18;;;;;;;51.35;31.90;;;;;;;;;;5035154;28;20057;-64
2023/02/13 01:20:44;;;;;;;55.47;31.65;;;;;;;;;;5017552;28;20029;-64
2023/02/13 01:23:11;;;;;;;50.97;30.63;;;;;;;;;;5035324;28;20120;-64
2023/02/13 01:25:40;;;;;;;56.40;31.75;;;;;;;;;;5000958;28;20021;-64
2023/02/13 01:28:06;;;;;;;51.40;29.95;;;;;;;;;;5017414;28;20535;-64
2023/02/13 01:30:31;;;;;;;51.25;29.30;;;;;;;;;;5017130;28;20168;-64
2023/02/13 01:32:56;;;;;;;47.85;28.40;;;;;;;;;;5035266;28;20025;-68
2023/02/13 01:35:22;;;;;;;48.45;29.50;;;;;;;;;;5017298;28;20028;-67
2023/02/13 01:37:47;;;;;;;54.75;30.50;;;;;;;;;;5034786;28;20029;-68
2023/02/13 01:40:14;;;;;;;53.88;30.48;;;;;;;;;;5017318;28;20034;-68
2023/02/13 01:42:39;;;;;;;54.00;30.77;;;;;;;;;;5017384;28;20022;-68
2023/02/13 01:45:05;;;;;;;57.10;29.85;;;;;;;;;;5017308;28;20035;-67
2023/02/13 01:47:40;;;;;;;53.92;30.77;;;;;;;;;;5034845;28;20120;-64
2023/02/13 01:50:11;;;;;;;55.10;31.40;;;;;;;;;;5034324;28;20033;-64
2023/02/13 01:52:38;;;;;;;58.45;31.75;;;;;;;;;;5034890;28;20113;-64
2023/02/13 01:55:04;;;;;;;58.15;32.80;;;;;;;;;;5043716;28;20139;-64
2023/02/13 01:57:32;;;;;;;56.67;32.35;;;;;;;;;;5035871;28;20104;-64
2023/02/13 02:00:01;;;;;;;56.80;32.08;;;;;;;;;;5036663;28;20231;-63
2023/02/13 02:02:27;;;;;;;50.47;29.52;;;;;;;;;;5019931;28;20065;-70
2023/02/13 02:04:53;;;;;;;59.15;31.10;;;;;;;;;;5020486;28;20035;-70
2023/02/13 02:07:22;;;;;;;55.67;31.10;;;;;;;;;;5036614;28;20037;-70
2023/02/13 02:09:48;;;;;;;56.28;30.90;;;;;;;;;;5019847;28;20040;-70
2023/02/13 02:12:33;;;;;;;53.88;30.42;;;;;;;;;;5036707;28;20033;-70
2023/02/13 02:15:00;;;;;;;53.40;30.25;;;;;;;;;;5054224;28;20111;-66
2023/02/13 02:17:29;;;;;;;;;;;;;;;;;;5036326;28;20048;-66
2023/02/13 02:19:54;;;;;;;56.87;30.30;;;;;;;;;;5052056;28;19904;-66
2023/02/13 02:22:25;;;;;;;;;;;;;;;;;;5036211;28;20029;-66
2023/02/13 02:25:02;;;;;;;55.60;31.07;;;;;;;;;;5036623;28;20006;-66
2023/02/13 02:27:28;;;;;;;60.25;31.60;;;;;;;;;;5036016;28;20285;-70
2023/02/13 02:30:15;;;;;;;58.85;31.08;;;;;;;;;;5035700;28;20054;-70
2023/02/13 02:33:06;;;;;;;56.38;31.27;;;;;;;;;;5053808;28;20025;-70
2023/02/13 02:35:42;;;;;;;55.47;33.13;;;;;;;;;;5053763;28;20406;-71
2023/02/13 02:38:13;;;;;;;62.45;33.47;;;;;;;;;;5036059;28;20059;-70
2023/02/13 02:40:54;;;;;;;59.83;33.40;;;;;;;;;;5035701;28;20036;-70
2023/02/13 02:43:38;;;;;;;60.90;33.70;;;;;;;;;;5035047;28;20029;-70
2023/02/13 02:46:20;;;;;;;61.75;34.42;;;;;;;;;;5034890;28;20064;-70
2023/02/13 02:52:02;;;;;;;63.85;37.22;;;;;;;;;;5034899;28;20091;-70
2023/02/13 02:55:15;;;;;;;67.55;36.10;;;;;;;;;;5015091;28;20140;-69
2023/02/13 03:06:09;;;;;;;63.67;35.30;;;;;;;;;;5009976;28;20044;-70
2023/02/13 03:14:02;;;;;;;69.47;38.15;;;;;;;;;;5057941;28;20036;-70
2023/02/13 03:22:22;;;;;;;70.53;38.72;;;;;;;;;;5039713;28;20033;-70
2023/02/13 03:25:29;;;;;;;71.43;39.33;;;;;;;;;;5039816;28;20036;-69
2023/02/13 03:31:01;;;;;;;71.95;40.67;;;;;;;;;;4957216;29;20038;-70
2023/02/13 03:33:41;;;;;;;79.05;40.83;;;;;;;;;;5033160;28;20044;-70
2023/02/13 03:39:24;;;;;;;69.10;39.83;;;;;;;;;;5057422;28;20041;-69
2023/02/13 03:42:09;;;;;;;76.03;39.90;;;;;;;;;;5057334;28;20045;-69
2023/02/13 03:44:38;;;;;;;69.43;37.90;;;;;;;;;;5056650;28;20033;-69
2023/02/13 03:47:04;;;;;;;71.88;37.55;;;;;;;;;;5057217;28;20033;-69
2023/02/13 03:52:21;;;;;;;65.25;36.42;;;;;;;;;;5057225;28;20036;-69
2023/02/13 04:00:19;;;;;;;66.30;36.92;;;;;;;;;;5039045;28;20044;-70
2023/02/13 04:02:49;;;;;;;68.00;35.92;;;;;;;;;;5056860;28;20033;-66
2023/02/13 04:05:17;;;;;;;67.97;36.78;;;;;;;;;;5056885;28;20033;-66
2023/02/13 04:07:43;;;;;;;68.90;37.42;;;;;;;;;;5038691;28;20037;-66
2023/02/13 04:10:09;;;;;;;69.00;36.25;;;;;;;;;;5056344;28;20045;-66
2023/02/13 04:12:56;;;;;;;66.50;35.78;;;;;;;;;;5038807;28;20021;-70
2023/02/13 04:15:44;;;;;;;64.55;35.45;;;;;;;;;;5056611;28;20025;-70
2023/02/13 04:18:14;;;;;;;68.90;35.72;;;;;;;;;;5043257;28;20041;-69
2023/02/13 04:20:39;;;;;;;70.63;36.75;;;;;;;;;;5037816;28;20032;-69
2023/02/13 04:23:06;;;;;;;71.07;36.22;;;;;;;;;;5056368;28;20029;-70
2023/02/13 04:25:32;;;;;;;67.68;35.60;;;;;;;;;;5055645;28;20044;-70
2023/02/13 04:27:58;;;;;;;68.28;36.95;;;;;;;;;;5056138;28;20033;-70
2023/02/13 04:30:23;;;;;;;65.85;35.97;;;;;;;;;;5055953;28;20445;-71
2023/02/13 04:32:51;;;;;;;67.65;35.85;;;;;;;;;;5055990;28;20455;-68
2023/02/13 04:35:17;;;;;;;67.30;34.97;;;;;;;;;;5056231;28;20029;-68
2023/02/13 04:37:42;;;;;;;68.68;34.90;;;;;;;;;;5038306;28;20025;-69
2023/02/13 04:40:09;;;;;;;68.88;35.13;;;;;;;;;;5056385;28;20103;-69
2023/02/13 04:42:34;;;;;;;64.53;34.25;;;;;;;;;;5055863;28;20025;-69
2023/02/13 04:44:59;;;;;;;66.25;34.47;;;;;;;;;;5055916;28;20072;-69
2023/02/13 04:47:25;;;;;;;65.90;35.33;;;;;;;;;;5038166;28;20440;-69
2023/02/13 04:49:50;;;;;;;62.60;33.88;;;;;;;;;;5055137;28;20028;-69
2023/02/13 04:52:16;;;;;;;63.22;34.25;;;;;;;;;;5037635;28;20422;-69
2023/02/13 04:54:43;;;;;;;62.55;33.17;;;;;;;;;;5037712;28;20041;-69
2023/02/13 04:57:08;;;;;;;64.43;34.65;;;;;;;;;;5055658;28;20033;-69
2023/02/13 04:59:34;;;;;;;66.03;35.22;;;;;;;;;;5021054;28;20033;-70
2023/02/13 05:01:59;;;;;;;68.97;36.55;;;;;;;;;;5036550;28;20445;-69
2023/02/13 05:04:24;;;;;;;64.40;34.42;;;;;;;;;;5054891;28;20360;-69
2023/02/13 05:06:50;;;;;;;64.18;34.45;;;;;;;;;;5037749;28;20037;-69
2023/02/13 05:09:16;;;;;;;62.42;35.50;;;;;;;;;;5055782;28;20028;-69
2023/02/13 05:11:42;;;;;;;66.03;35.08;;;;;;;;;;5054471;28;20061;-69
2023/02/13 05:14:08;;;;;;;61.17;34.58;;;;;;;;;;5047874;28;20482;-66
2023/02/13 05:16:34;;;;;;;56.88;31.88;;;;;;;;;;5052838;28;20055;-68
2023/02/13 05:18:59;;;;;;;62.53;33.10;;;;;;;;;;5051970;28;20052;-69
2023/02/13 05:24:09;;;;;;;57.55;33.28;;;;;;;;;;5055356;28;20140;-68
2023/02/13 05:26:35;;;;;;;56.63;32.25;;;;;;;;;;5055156;28;20100;-69
2023/02/13 05:29:18;;;;;;;61.83;34.17;;;;;;;;;;5054939;28;20459;-68
2023/02/13 05:31:54;;;;;;;62.22;32.78;;;;;;;;;;5055308;28;20029;-68
2023/02/13 05:34:20;;;;;;;56.13;31.55;;;;;;;;;;5054707;28;20035;-65
2023/02/13 05:36:46;;;;;;;45.92;24.13;;;;;;;;;;5054668;28;20391;-68
2023/02/13 05:39:11;;;;;;;56.47;32.20;;;;;;;;;;5055016;28;20025;-64
2023/02/13 05:41:37;;;;;;;53.45;30.80;;;;;;;;;;5054932;28;20029;-64
2023/02/13 05:44:02;;;;;;;57.80;30.30;;;;;;;;;;5036750;28;20029;-63
2023/02/13 05:46:28;;;;;;;50.42;27.88;;;;;;;;;;5055046;28;20410;-63
2023/02/13 05:48:53;;;;;;;45.45;26.02;;;;;;;;;;5055341;28;20120;-63
2023/02/13 05:51:19;;;;;;;52.58;28.15;;;;;;;;;;5054404;28;20123;-64
2023/02/13 05:53:44;;;;;;;45.72;26.63;;;;;;;;;;5036665;28;20033;-63
2023/02/13 05:56:09;;;;;;;49.17;26.48;;;;;;;;;;5053669;28;20119;-64
2023/02/13 05:58:35;;;;;;;49.65;28.42;;;;;;;;;;5035720;28;20033;-63
2023/02/13 06:01:00;;;;;;;49.30;27.45;;;;;;;;;;5019248;28;20450;-63
2023/02/13 06:03:29;;;;;;;46.20;26.70;;;;;;;;;;5053436;28;20033;-63
2023/02/13 06:05:55;;;;;;;45.30;26.15;;;;;;;;;;5052574;28;20517;-63
2023/02/13 06:08:21;;;;;;;50.22;27.13;;;;;;;;;;5052538;28;20138;-63
2023/02/13 06:10:47;;;;;;;53.67;29.10;;;;;;;;;;5019045;28;20361;-63
2023/02/13 06:13:12;;;;;;;49.70;29.48;;;;;;;;;;5036251;28;20068;-64
2023/02/13 06:15:38;;;;;;;52.00;29.38;;;;;;;;;;5054083;28;20036;-64
2023/02/13 06:18:05;;;;;;;49.15;27.58;;;;;;;;;;5054265;28;20028;-64
2023/02/13 06:20:32;;;;;;;47.80;26.98;;;;;;;;;;5054003;28;20391;-63
2023/02/13 06:22:58;;;;;;;47.85;27.48;;;;;;;;;;5054264;28;20099;-63
2023/02/13 06:25:23;;;;;;;50.50;27.92;;;;;;;;;;5054208;28;20102;-64
2023/02/13 06:30:33;;;;;;;49.55;26.52;;;;;;;;;;5060668;23;20056;-68
2023/02/13 06:32:59;;;;;;;50.17;26.60;;;;;;;;;;5061726;22;20057;-64
2023/02/13 06:35:24;;;;;;;61.17;33.45;;;;;;;;;;5034111;28;20080;-64
2023/02/13 06:37:49;;;;;;;60.17;32.72;;;;;;;;;;5035680;28;20519;-64
2023/02/13 06:40:15;;;;;;;55.63;31.67;;;;;;;;;;5053736;28;20434;-64
2023/02/13 06:42:41;;;;;;;57.95;31.65;;;;;;;;;;5053448;28;20109;-67
2023/02/13 06:45:06;;;;;;;52.83;27.92;;;;;;;;;;5036358;28;20456;-67
2023/02/13 06:47:31;;;;;;;48.83;27.52;;;;;;;;;;5053915;28;20466;-68
2023/02/13 06:49:57;;;;;;;54.25;30.67;;;;;;;;;;5035577;28;20479;-68
2023/02/13 06:52:22;;;;;;;47.88;28.52;;;;;;;;;;5053826;28;20040;-68
2023/02/13 06:54:48;;;;;;;46.22;25.75;;;;;;;;;;5053545;28;20041;-68
2023/02/13 06:57:14;;;;;;;46.17;25.15;;;;;;;;;;5036031;28;20375;-68
2023/02/13 06:59:39;;;;;;;40.10;23.52;;;;;;;;;;5053518;28;20029;-68
2023/02/13 07:02:05;;;;;;;42.95;23.70;;;;;;;;;;5053513;28;20029;-68
2023/02/13 07:04:30;;;;;;;38.67;22.90;;;;;;;;;;5035590;28;20130;-68
2023/02/13 07:06:55;;;;;;;40.75;23.00;;;;;;;;;;5053454;28;20036;-68
2023/02/13 07:09:23;;;;;;;37.60;22.63;;;;;;;;;;5035679;28;20021;-68
2023/02/13 07:11:48;;;;;;;45.75;25.00;;;;;;;;;;5035387;28;20052;-68
2023/02/13 07:14:14;;;;;;;39.97;23.58;;;;;;;;;;5035920;28;20033;-68
2023/02/13 07:16:39;;;;;;;37.88;23.58;;;;;;;;;;5053339;28;20029;-67
2023/02/13 07:19:04;;;;;;;41.40;24.52;;;;;;;;;;5035905;28;20033;-67
2023/02/13 07:21:29;;;;;;;40.03;24.17;;;;;;;;;;5053638;28;20060;-67
2023/02/13 07:23:55;;;;;;;41.38;24.88;;;;;;;;;;5053280;28;20029;-68
2023/02/13 07:26:20;;;;;;;45.25;26.60;;;;;;;;;;5035433;28;20059;-68
2023/02/13 07:28:45;;;;;;;45.63;27.50;;;;;;;;;;5053250;28;20060;-68
2023/02/13 07:31:11;;;;;;;50.03;31.95;;;;;;;;;;5036096;28;20033;-68
2023/02/13 07:33:36;;;;;;;43.22;25.95;;;;;;;;;;5053031;28;20128;-68
2023/02/13 07:36:02;;;;;;;41.03;24.77;;;;;;;;;;5053196;28;20043;-68
2023/02/13 07:38:28;;;;;;;41.00;24.38;;;;;;;;;;5053147;28;20036;-68
2023/02/13 07:41:03;;;;;;;39.72;23.90;;;;;;;;;;5053087;28;20033;-68
2023/02/13 07:43:29;;;;;;;44.50;25.88;;;;;;;;;;5035641;28;20064;-68
2023/02/13 07:45:58;;;;;;;52.42;28.75;;;;;;;;;;5035338;28;20091;-68
2023/02/13 07:48:26;;;;;;;49.38;27.90;;;;;;;;;;5035551;28;20455;-68
2023/02/13 07:50:52;;;;;;;49.35;26.75;;;;;;;;;;5035031;28;20065;-68
2023/02/13 07:53:17;;;;;;;52.08;28.05;;;;;;;;;;5053294;28;20107;-68
2023/02/13 07:55:43;;;;;;;51.83;28.17;;;;;;;;;;5054643;28;20109;-68
2023/02/13 07:58:08;;;;;;;52.72;28.38;;;;;;;;;;5056744;28;20375;-68
2023/02/13 08:00:33;;;;;;;47.30;25.98;;;;;;;;;;5038942;28;20041;-68
2023/02/13 08:02:59;;;;;;;46.67;26.40;;;;;;;;;;5056615;28;20078;-68
2023/02/13 08:05:24;;;;;;;50.97;28.17;;;;;;;;;;5056530;28;20041;-67
2023/02/13 08:07:50;;;;;;;48.95;26.98;;;;;;;;;;5056539;28;20052;-67
2023/02/13 08:13:00;;;;;;;38.90;23.40;;;;;;;;;;5056685;28;20123;-67
2023/02/13 08:15:25;;;;;;;42.00;23.25;;;;;;;;;;5039050;28;20060;-67
2023/02/13 08:17:50;;;;;;;42.17;23.58;;;;;;;;;;5056325;28;20025;-67
2023/02/13 08:20:16;;;;;;;39.83;23.08;;;;;;;;;;5056606;28;20090;-67
2023/02/13 08:22:41;;;;;;;39.80;22.42;;;;;;;;;;5038311;28;20120;-67
2023/02/13 08:25:08;;;;;;;41.03;21.83;;;;;;;;;;5038379;28;20029;-67
2023/02/13 08:27:33;;;;;;;36.67;21.27;;;;;;;;;;5038253;28;20437;-67
2023/02/13 08:29:58;;;;;;;36.42;21.25;;;;;;;;;;5056059;28;20060;-67
2023/02/13 08:32:24;;;;;;;36.78;20.25;;;;;;;;;;5038372;28;20057;-67
2023/02/13 08:34:49;;;;;;;37.50;19.98;;;;;;;;;;5038106;28;20079;-67
2023/02/13 08:37:15;;;;;;;25.02;16.05;;;;;;;;;;5055959;28;20352;-67
2023/02/13 08:39:40;;;;;;;35.72;19.60;;;;;;;;;;5055935;28;20024;-67
2023/02/13 08:42:05;;;;;;;30.77;17.98;;;;;;;;;;5055936;28;20025;-67
2023/02/13 08:44:31;;;;;;;34.08;19.85;;;;;;;;;;5055820;28;20033;-67
2023/02/13 08:46:57;;;;;;;33.58;19.88;;;;;;;;;;5038018;28;20099;-67
2023/02/13 08:49:22;;;;;;;32.53;18.27;;;;;;;;;;5038267;28;20025;-67
2023/02/13 08:51:48;;;;;;;34.53;19.48;;;;;;;;;;5055657;28;20372;-67
2023/02/13 08:54:14;;;;;;;31.88;18.17;;;;;;;;;;5055630;28;20025;-67
2023/02/13 08:56:40;;;;;;;30.77;18.58;;;;;;;;;;5021602;28;20025;-67
2023/02/13 08:59:27;;;;;;;30.15;17.50;;;;;;;;;;5063035;23;20025;-67
2023/02/13 09:01:53;;;;;;;26.02;16.50;;;;;;;;;;5057208;23;20044;-67
2023/02/13 09:04:18;;;;;;;25.88;16.63;;;;;;;;;;5057925;28;20024;-67
2023/02/13 09:06:43;;;;;;;30.85;18.25;;;;;;;;;;5075024;28;20596;-67
2023/02/13 09:09:09;;;;;;;27.95;17.10;;;;;;;;;;5075369;28;20103;-64
2023/02/13 09:11:45;;;;;;;27.98;17.77;;;;;;;;;;5089139;23;20050;-64
2023/02/13 09:14:10;;;;;;;28.85;17.13;;;;;;;;;;5069057;23;20474;-64
2023/02/13 09:16:36;;;;;;;26.63;18.00;;;;;;;;;;5057403;28;20068;-64
2023/02/13 09:19:01;;;;;;;30.63;17.85;;;;;;;;;;5057259;28;20073;-64
2023/02/13 09:21:26;;;;;;;27.35;16.90;;;;;;;;;;5075402;28;20107;-64
2023/02/13 09:23:54;;;;;;;29.55;18.40;;;;;;;;;;5075035;28;20039;-64
2023/02/13 09:26:19;;;;;;;30.75;18.85;;;;;;;;;;5075004;28;20585;-64
2023/02/13 09:28:44;;;;;;;30.45;17.92;;;;;;;;;;5056986;28;20056;-64
2023/02/13 09:31:11;;;;;;;27.35;17.25;;;;;;;;;;5074864;28;20028;-64
2023/02/13 09:33:37;;;;;;;26.25;16.30;;;;;;;;;;5057064;28;20094;-64
2023/02/13 09:36:06;;;;;;;23.65;15.52;;;;;;;;;;5075124;28;20028;-64
2023/02/13 09:38:31;;;;;;;24.27;15.02;;;;;;;;;;5056823;28;20017;-64
2023/02/13 09:40:59;;;;;;;22.05;15.05;;;;;;;;;;5074999;28;20043;-64
2023/02/13 09:43:28;;;;;;;21.70;14.13;;;;;;;;;;5075529;28;20036;-64
2023/02/13 09:45:57;;;;;;;21.70;14.23;;;;;;;;;;5057058;28;20063;-64
2023/02/13 09:48:29;;;;;;;22.05;14.43;;;;;;;;;;5074580;28;20043;-64
2023/02/13 09:50:56;;;;;;;21.27;14.27;;;;;;;;;;5056530;28;20429;-64
2023/02/13 09:53:22;;;;;;;23.58;14.90;;;;;;;;;;5056572;28;20029;-64
2023/02/13 09:56:03;;;;;;;27.13;16.67;;;;;;;;;;5074413;28;20120;-67
2023/02/13 09:58:29;;;;;;;;;;;;;;;;;;5075091;28;20067;-67
2023/02/13 10:00:56;;;;;;;22.05;13.05;;;;;;;;;;5056458;28;19904;-67
2023/02/13 10:03:31;;;;;;;25.88;15.52;;;;;;;;;;5074542;28;20024;-67
2023/02/13 10:05:56;;;;;;;28.27;16.42;;;;;;;;;;5056648;28;20033;-68
2023/02/13 10:08:53;;;;;;;22.83;13.75;;;;;;;;;;5074513;28;20024;-67
2023/02/13 10:11:21;;;;;;;22.13;13.45;;;;;;;;;;5029732;28;20086;-67
2023/02/13 10:13:52;;;;;;;17.75;10.57;;;;;;;;;;5069844;28;20094;-67
2023/02/13 10:16:17;;;;;;;;;;;;;;;;;;5054814;28;20029;-68
2023/02/13 10:19:01;;;;;;;18.57;11.03;;;;;;;;;;5053367;28;20424;-67
2023/02/13 10:21:32;;;;;;;19.83;11.73;;;;;;;;;;5054023;28;20320;-67
2023/02/13 10:24:11;;;;;;;21.95;12.13;;;;;;;;;;5036380;28;20036;-67
2023/02/13 10:26:41;;;;;;;18.77;10.98;;;;;;;;;;5054491;28;20025;-67
2023/02/13 10:32:15;;;;;;;23.35;11.82;;;;;;;;;;5054438;28;20068;-67
2023/02/13 10:34:42;;;;;;;17.15;9.98;;;;;;;;;;5035985;28;20079;-67
2023/02/13 10:37:11;;;;;;;15.20;10.10;;;;;;;;;;5053814;28;20029;-68
2023/02/13 10:39:36;;;;;;;16.40;10.07;;;;;;;;;;5053791;28;20090;-67
2023/02/13 10:42:01;;;;;;;17.25;10.52;;;;;;;;;;5053747;28;20033;-67
2023/02/13 10:44:29;;;;;;;15.55;10.38;;;;;;;;;;5053980;28;20025;-68
2023/02/13 10:47:02;;;;;;;16.02;10.63;;;;;;;;;;5053958;28;20036;-67
2023/02/13 10:49:33;;;;;;;14.07;9.73;;;;;;;;;;5053658;28;20162;-67
2023/02/13 10:52:14;;;;;;;17.83;10.65;;;;;;;;;;5053795;28;20036;-67
2023/02/13 10:54:58;;;;;;;12.73;10.10;;;;;;;;;;5053883;28;20162;-67
2023/02/13 10:57:27;;;;;;;17.30;11.43;;;;;;;;;;5053828;28;20079;-67
2023/02/13 11:00:10;;;;;;;14.65;9.57;;;;;;;;;;5035713;28;20082;-67
2023/02/13 11:02:37;;;;;;;15.32;10.50;;;;;;;;;;5053754;28;20060;-67
2023/02/13 11:05:05;;;;;;;20.35;12.00;;;;;;;;;;5035604;28;20017;-67
2023/02/13 11:07:33;;;;;;;21.70;13.68;;;;;;;;;;5053713;28;20116;-64
2023/02/13 11:10:02;;;;;;;22.80;14.45;;;;;;;;;;5053637;28;20033;-64
2023/02/13 11:12:31;;;;;;;24.38;16.92;;;;;;;;;;5035970;28;20032;-67
2023/02/13 11:14:59;;;;;;;20.77;13.90;;;;;;;;;;5053261;28;20049;-67
2023/02/13 11:17:25;;;;;;;24.85;16.48;;;;;;;;;;5053918;28;20043;-67
2023/02/13 11:19:55;;;;;;;28.27;18.52;;;;;;;;;;5035288;28;20025;-67
2023/02/13 11:22:29;;;;;;;26.37;15.43;;;;;;;;;;5019296;28;20076;-67
2023/02/13 11:24:57;;;;;;;18.02;11.80;;;;;;;;;;5053313;28;20032;-67
2023/02/13 11:27:25;;;;;;;18.08;12.27;;;;;;;;;;5063566;23;20611;-67
2023/02/13 11:30:02;;;;;;;17.02;11.70;;;;;;;;;;5036420;23;20165;-67
2023/02/13 11:32:28;;;;;;;16.20;10.60;;;;;;;;;;5036136;28;20030;-67
2023/02/13 11:34:54;;;;;;;12.57;9.07;;;;;;;;;;5019597;28;20376;-67
2023/02/13 11:37:21;;;;;;;12.00;9.45;;;;;;;;;;5037219;28;20025;-67
2023/02/13 11:39:48;;;;;;;11.00;8.40;;;;;;;;;;5050400;23;20123;-64
2023/02/13 11:42:15;;;;;;;12.63;8.80;;;;;;;;;;5039224;23;20095;-64
2023/02/13 11:44:41;;;;;;;12.68;9.25;;;;;;;;;;5039238;28;20487;-64
2023/02/13 11:47:06;;;;;;;12.65;9.23;;;;;;;;;;5039461;28;20023;-64
2023/02/13 11:49:36;;;;;;;10.68;8.05;;;;;;;;;;5057730;28;20033;-64
2023/02/13 11:52:03;;;;;;;10.77;8.57;;;;;;;;;;5038860;28;20047;-64
2023/02/13 11:54:33;;;;;;;9.52;8.02;;;;;;;;;;5057098;28;20053;-64
2023/02/13 11:57:17;;;;;;;8.55;7.65;;;;;;;;;;5056742;28;20033;-64
2023/02/13 11:59:43;;;;;;;11.68;8.50;;;;;;;;;;5039095;28;20384;-64
2023/02/13 12:02:18;;;;;;;11.73;8.52;;;;;;;;;;5056647;28;20068;-64
2023/02/13 12:04:43;;;;;;;10.13;8.13;;;;;;;;;;5056877;28;20053;-64
2023/02/13 12:07:17;;;;;;;12.10;9.80;;;;;;;;;;5056552;28;20052;-64
2023/02/13 12:09:45;;;;;;;13.10;9.38;;;;;;;;;;5056435;28;20460;-64
2023/02/13 12:12:32;;;;;;;14.18;10.65;;;;;;;;;;5056447;28;20025;-63
2023/02/13 12:15:00;;;;;;;15.77;11.82;;;;;;;;;;5056362;28;20120;-64
2023/02/13 12:17:26;;;;;;;13.52;11.27;;;;;;;;;;5056633;28;20491;-63
2023/02/13 12:19:54;;;;;;;13.50;11.55;;;;;;;;;;5038437;28;20048;-64
2023/02/13 12:22:39;;;;;;;15.15;12.05;;;;;;;;;;5056288;28;20043;-64
2023/02/13 12:25:08;;;;;;;14.38;11.05;;;;;;;;;;5056516;28;20473;-64
2023/02/13 12:27:52;;;;;;;15.55;12.75;;;;;;;;;;5056737;28;20455;-64
2023/02/13 12:30:20;;;;;;;11.70;9.73;;;;;;;;;;5038267;28;20037;-64
2023/02/13 12:32:51;;;;;;;11.60;10.40;;;;;;;;;;5038225;28;20048;-64
2023/02/13 12:35:32;;;;;;;16.95;12.77;;;;;;;;;;5038577;28;20075;-64
2023/02/13 12:38:04;;;;;;;17.60;12.90;;;;;;;;;;5056563;28;20029;-64
2023/02/13 12:40:38;;;;;;;15.40;12.02;;;;;;;;;;5055637;28;20095;-64
2023/02/13 12:43:21;;;;;;;15.05;11.98;;;;;;;;;;5038130;28;20049;-67
2023/02/13 12:46:02;;;;;;;13.73;11.73;;;;;;;;;;5038346;28;20526;-67
2023/02/13 12:48:28;;;;;;;17.13;11.60;;;;;;;;;;5021485;28;20502;-67
2023/02/13 12:50:56;;;;;;;13.07;10.38;;;;;;;;;;5055995;28;20033;-67
2023/02/13 12:53:31;;;;;;;15.73;12.43;;;;;;;;;;5037810;28;20025;-68
2023/02/13 12:56:08;;;;;;;15.80;12.13;;;;;;;;;;5055929;28;20071;-67
2023/02/13 12:58:52;;;;;;;15.68;13.10;;;;;;;;;;5055602;28;20040;-67
2023/02/13 13:01:21;;;;;;;17.58;13.07;;;;;;;;;;5055862;28;20441;-67
2023/02/13 13:03:52;;;;;;;18.00;13.00;;;;;;;;;;5037707;28;20021;-64
2023/02/13 13:06:28;;;;;;;16.95;13.10;;;;;;;;;;5021102;28;20483;-64
2023/02/13 13:09:12;;;;;;;17.20;12.55;;;;;;;;;;5055674;28;20079;-64
2023/02/13 13:11:56;;;;;;;17.95;13.45;;;;;;;;;;5055567;28;20055;-64
2023/02/13 13:14:40;;;;;;;14.73;10.63;;;;;;;;;;5055272;28;20021;-64
2023/02/13 13:17:17;;;;;;;12.82;9.38;;;;;;;;;;5055808;28;20032;-64
2023/02/13 13:19:55;;;;;;;16.45;11.50;;;;;;;;;;5055540;28;20479;-64
2023/02/13 13:22:24;;;;;;;12.98;11.35;;;;;;;;;;5020822;28;20095;-64
2023/02/13 13:24:55;;;;;;;15.50;11.43;;;;;;;;;;5055115;28;20016;-64
2023/02/13 13:27:25;;;;;;;15.07;11.82;;;;;;;;;;5055313;28;20475;-64
2023/02/13 13:29:53;;;;;;;13.40;10.90;;;;;;;;;;5055220;28;20029;-64
2023/02/13 13:32:20;;;;;;;14.65;11.75;;;;;;;;;;5054952;28;20063;-64
2023/02/13 13:34:45;;;;;;;14.68;11.35;;;;;;;;;;5054941;28;20463;-64
2023/02/13 13:37:12;;;;;;;13.60;10.93;;;;;;;;;;5054872;28;20035;-64
2023/02/13 13:39:53;;;;;;;13.88;10.55;;;;;;;;;;5037336;28;20090;-63
2023/02/13 13:42:18;;;;;;;;;;;;;;;;;;5037126;28;20128;-64
2023/02/13 13:44:46;;;;;;;12.53;10.23;;;;;;;;;;5054755;28;19991;-64
2023/02/13 13:47:24;;;;;;;14.70;10.85;;;;;;;;;;5037211;28;20667;-63
2023/02/13 13:49:57;;;;;;;14.32;10.23;;;;;;;;;;5055039;28;20467;-64
2023/02/13 13:52:25;;;;;;;11.63;9.93;;;;;;;;;;5054856;28;20032;-64
2023/02/13 13:54:54;;;;;;;10.80;9.15;;;;;;;;;;5055068;28;20035;-64
2023/02/13 13:57:19;;;;;;;11.57;9.52;;;;;;;;;;5054739;28;20036;-67
2023/02/13 13:59:50;;;;;;;11.52;9.75;;;;;;;;;;5054464;28;20021;-64
2023/02/13 14:02:15;;;;;;;12.80;10.15;;;;;;;;;;5054658;28;20029;-64
2023/02/13 14:04:58;;;;;;;13.70;10.32;;;;;;;;;;5054358;28;20039;-64
2023/02/13 14:07:24;;;;;;;10.40;8.88;;;;;;;;;;5054308;28;20387;-64
2023/02/13 14:09:49;;;;;;;8.90;7.65;;;;;;;;;;5070978;23;20061;-66
2023/02/13 14:12:24;;;;;;;8.05;6.05;;;;;;;;;;5034684;28;20034;-67
2023/02/13 14:14:53;;;;;;;7.30;5.88;;;;;;;;;;5034814;28;20087;-67
2023/02/13 14:17:38;;;;;;;4.93;3.97;;;;;;;;;;5034258;28;20029;-67
2023/02/13 14:20:19;;;;;;;3.95;3.60;;;;;;;;;;4994850;28;20044;-67
2023/02/13 14:22:44;;;;;;;3.85;3.38;;;;;;;;;;5016875;28;20033;-67
2023/02/13 14:25:21;;;;;;;3.78;3.47;;;;;;;;;;5034301;28;20033;-67
2023/02/13 14:27:54;;;;;;;4.50;4.10;;;;;;;;;;5016325;28;20061;-67
2023/02/13 14:42:29;;;;;;;4.07;3.63;;;;;;;;;;5090879;27;20468;-55
2023/02/13 14:44:58;;;;;;;5.13;4.28;;;;;;;;;;5090817;28;20052;-55
2023/02/13 14:47:42;;;;;;;4.70;4.13;;;;;;;;;;5084130;28;20016;-55
2023/02/13 14:50:14;;;;;;;6.38;5.15;;;;;;;;;;5070867;28;20123;-55
2023/02/13 14:52:42;;;;;;;6.80;5.00;;;;;;;;;;5070827;28;20078;-56
2023/02/13 14:55:12;;;;;;;6.10;5.10;;;;;;;;;;5070870;28;20155;-55
2023/02/13 14:57:38;;;;;;;;;;;;;;;;;;5071071;28;20416;-54
2023/02/13 15:00:07;;;;;;;7.80;5.47;;;;;;;;;;5070751;28;19951;-59
2023/02/13 15:02:36;;;;;;;8.68;5.75;;;;;;;;;;5069120;28;20495;-57
2023/02/13 15:05:12;;;;;;;8.70;6.10;;;;;;;;;;5070678;28;20082;-57
2023/02/13 15:07:43;;;;;;;8.07;5.60;;;;;;;;;;5069371;28;20468;-58
2023/02/13 15:10:31;;;;;;;5.90;4.88;;;;;;;;;;5070063;28;20040;-58
2023/02/13 15:12:57;;;;;;;7.20;5.35;;;;;;;;;;5068910;28;20476;-57
2023/02/13 15:15:24;;;;;;;6.25;4.88;;;;;;;;;;5068812;28;20036;-58
2023/02/13 15:17:51;;;;;;;6.03;5.10;;;;;;;;;;5069525;28;20025;-58
2023/02/13 15:20:27;;;;;;;5.78;5.05;;;;;;;;;;5067650;28;20095;-58
2023/02/13 15:22:53;;;;;;;7.30;4.88;;;;;;;;;;5068790;28;20052;-58
2023/02/13 15:25:37;;;;;;;6.18;5.45;;;;;;;;;;5068746;28;20464;-61
2023/02/13 15:28:04;;;;;;;5.50;4.95;;;;;;;;;;5068697;28;20039;-58
2023/02/13 15:30:37;;;;;;;5.75;5.25;;;;;;;;;;5067378;28;20044;-58
2023/02/13 15:33:16;;;;;;;7.57;5.82;;;;;;;;;;5067398;28;20071;-58